Time;durP1;ratioP1;P1;durP2;ratioP2;P2;SDS_P1;SDS_P2;PMS_P1;PMS_P2;Temp;Humidity;BMP_temperature;BMP_pressure;BME280_temperature;BME280_humidity;BME280_pressure;Samples;Min_cycle;Max_cycle;Signal;HPM_P1;HPM_P2
2022/08/09 00:00:26;;;;;;;9.68;6.40;;;;;;;17.62;100.00;100274.63;1725076;82;20999;-68
2022/08/09 00:02:52;;;;;;;8.60;5.92;;;;;;;17.67;100.00;100273.17;1727140;82;21068;-67
2022/08/09 00:06:31;;;;;;;9.23;6.28;;;;;;;17.76;100.00;100267.19;1769566;79;22423;-68
2022/08/09 00:08:57;;;;;;;9.10;5.92;;;;;;;17.72;100.00;100271.67;1722627;82;21026;-69
2022/08/09 00:11:25;;;;;;;8.23;6.05;;;;;;;17.72;100.00;100271.12;1735776;82;21031;-68
2022/08/09 00:13:51;;;;;;;10.48;5.80;;;;;;;17.75;100.00;100272.44;1721427;82;21058;-69
2022/08/09 00:16:18;;;;;;;10.60;6.50;;;;;;;17.76;100.00;100273.52;1722694;82;21074;-69
2022/08/09 00:18:44;;;;;;;6.97;5.97;;;;;;;17.75;100.00;100273.81;1733681;82;21069;-68
2022/08/09 00:21:10;;;;;;;;;;;;;;;17.76;100.00;100264.44;1751021;82;21019;-68
2022/08/09 00:23:37;;;;;;;10.30;6.35;;;;;;;17.75;100.00;100264.17;1723576;82;20152;-69
2022/08/09 00:26:07;;;;;;;9.20;6.70;;;;;;;17.65;100.00;100272.09;1722717;82;21086;-68
2022/08/09 00:28:34;;;;;;;8.68;6.08;;;;;;;17.63;100.00;100268.84;1735457;82;21476;-67
2022/08/09 00:31:01;;;;;;;7.47;5.90;;;;;;;17.63;100.00;100267.46;1723067;82;21094;-67
2022/08/09 00:33:28;;;;;;;7.67;6.28;;;;;;;17.64;100.00;100264.15;1738799;82;21601;-67
2022/08/09 00:35:54;;;;;;;10.55;6.72;;;;;;;17.64;100.00;100265.53;1729600;82;21082;-66
2022/08/09 00:38:21;;;;;;;8.90;6.40;;;;;;;17.65;100.00;100268.52;1728160;82;20987;-68
2022/08/09 00:40:48;;;;;;;9.00;5.67;;;;;;;17.66;100.00;100257.77;1736837;82;21361;-66
2022/08/09 00:43:14;;;;;;;9.45;6.30;;;;;;;17.67;100.00;100265.73;1722438;82;21431;-67
2022/08/09 00:45:40;;;;;;;8.20;6.00;;;;;;;17.67;100.00;100260.23;1731296;82;21113;-67
2022/08/09 00:48:07;;;;;;;7.53;6.25;;;;;;;17.68;100.00;100262.39;1730474;82;21001;-68
2022/08/09 00:50:34;;;;;;;9.83;6.40;;;;;;;17.63;100.00;100260.58;1740637;82;21677;-67
2022/08/09 00:53:00;;;;;;;;;;;;;;;17.60;100.00;100261.75;1742164;82;21038;-67
2022/08/09 00:55:26;;;;;;;8.00;6.05;;;;;;;17.61;100.00;100253.17;1739122;82;20137;-68
2022/08/09 00:57:52;;;;;;;;;;;;;;;17.56;100.00;100246.92;1738026;82;20984;-68
2022/08/09 01:00:19;;;;;;;11.55;5.90;;;;;;;17.57;100.00;100252.14;1720316;82;20180;-67
2022/08/09 01:02:50;;;;;;;9.10;5.70;;;;;;;17.54;100.00;100254.66;1733640;82;21495;-68
2022/08/09 01:05:22;;;;;;;10.98;5.08;;;;;;;17.56;100.00;100255.19;1730629;82;21070;-67
2022/08/09 01:08:20;;;;;;;7.90;5.20;;;;;;;17.55;100.00;100252.17;1691936;82;21035;-67
2022/08/09 01:11:10;;;;;;;10.55;5.75;;;;;;;17.56;100.00;100254.66;1727908;82;21078;-68
2022/08/09 01:13:59;;;;;;;8.68;5.53;;;;;;;17.52;100.00;100256.36;1730999;82;21019;-67
2022/08/09 01:16:31;;;;;;;7.83;5.42;;;;;;;17.49;100.00;100257.53;1737459;82;21596;-69
2022/08/09 01:19:01;;;;;;;6.70;5.37;;;;;;;17.48;100.00;100258.64;1734601;82;20999;-67
2022/08/09 01:21:44;;;;;;;7.53;5.12;;;;;;;17.48;100.00;100258.08;1739095;82;21047;-66
2022/08/09 01:24:28;;;;;;;6.00;4.90;;;;;;;17.49;100.00;100262.48;1679149;85;21019;-66
2022/08/09 01:27:11;;;;;;;8.68;5.20;;;;;;;17.48;100.00;100255.33;1725643;82;21086;-67
2022/08/09 01:29:43;;;;;;;12.03;5.53;;;;;;;17.48;100.00;100251.76;1736517;82;21430;-67
2022/08/09 01:32:12;;;;;;;6.70;5.28;;;;;;;17.43;100.00;100252.66;1743729;82;21503;-68
2022/08/09 01:34:39;;;;;;;8.75;5.20;;;;;;;17.40;100.00;100260.98;1741191;82;20987;-68
2022/08/09 01:37:06;;;;;;;5.87;4.75;;;;;;;17.39;100.00;100266.22;1722229;82;21042;-67
2022/08/09 01:39:34;;;;;;;6.35;4.80;;;;;;;17.41;100.00;100263.17;1741091;82;21089;-68
2022/08/09 01:42:04;;;;;;;8.30;5.40;;;;;;;17.43;100.00;100260.92;1726418;82;21133;-68
2022/08/09 01:44:31;;;;;;;7.30;4.90;;;;;;;17.47;100.00;100266.63;1707051;83;20991;-68
2022/08/09 01:46:58;;;;;;;8.33;5.40;;;;;;;17.48;100.00;100260.02;1738401;82;21039;-67
2022/08/09 01:49:25;;;;;;;7.50;4.70;;;;;;;17.50;100.00;100264.67;1702665;82;20972;-67
2022/08/09 01:51:55;;;;;;;7.53;4.97;;;;;;;17.51;100.00;100262.16;1725545;82;21608;-67
2022/08/09 01:54:31;;;;;;;7.35;4.60;;;;;;;17.49;100.00;100258.34;1726805;82;21027;-67
2022/08/09 01:56:59;;;;;;;7.28;4.70;;;;;;;17.47;100.00;100253.69;1728618;82;21094;-68
2022/08/09 01:59:26;;;;;;;6.50;4.92;;;;;;;17.43;100.00;100256.00;1737060;82;21006;-68
2022/08/09 02:01:53;;;;;;;6.12;4.90;;;;;;;17.45;100.00;100258.70;1727874;82;21059;-68
2022/08/09 02:04:21;;;;;;;6.00;4.60;;;;;;;17.45;100.00;100253.19;1728794;82;21050;-68
2022/08/09 02:07:08;;;;;;;7.58;4.97;;;;;;;17.47;100.00;100257.00;1736180;82;21671;-68
2022/08/09 02:09:21;;;;;;;7.90;4.58;;;;;;;17.48;100.00;100255.89;1720439;82;20944;-68
2022/08/09 02:11:48;;;;;;;7.12;4.42;;;;;;;17.48;100.00;100256.70;1732731;82;21534;-68
2022/08/09 02:14:15;;;;;;;6.90;4.78;;;;;;;17.43;100.00;100256.79;1736216;82;20974;-68
2022/08/09 02:16:41;;;;;;;7.25;4.97;;;;;;;17.45;100.00;100256.50;1718119;82;21047;-68
2022/08/09 02:19:07;;;;;;;;;;;;;;;17.46;100.00;100256.77;1732450;82;21354;-69
2022/08/09 02:21:38;;;;;;;8.80;5.30;;;;;;;17.48;100.00;100268.27;1728198;82;20150;-68
2022/08/09 02:24:08;;;;;;;9.85;6.00;;;;;;;17.43;100.00;100264.49;1729783;82;21027;-67
2022/08/09 02:26:34;;;;;;;6.80;5.42;;;;;;;17.40;100.00;100265.11;1732941;82;21430;-67
2022/08/09 02:29:06;;;;;;;9.88;5.50;;;;;;;17.41;100.00;100265.37;1728375;82;21055;-67
2022/08/09 02:31:35;;;;;;;10.23;5.78;;;;;;;17.42;100.00;100262.06;1736840;82;21083;-67
2022/08/09 02:34:07;;;;;;;7.55;5.22;;;;;;;17.37;100.00;100258.02;1741489;82;20987;-68
2022/08/09 02:36:38;;;;;;;7.08;5.20;;;;;;;17.32;100.00;100269.14;1740439;82;21062;-68
2022/08/09 02:39:07;;;;;;;8.25;5.58;;;;;;;17.31;100.00;100257.31;1744474;82;21035;-67
2022/08/09 02:41:45;;;;;;;7.40;5.53;;;;;;;17.30;100.00;100276.30;1739588;82;21035;-67
2022/08/09 02:44:19;;;;;;;11.33;4.92;;;;;;;17.25;100.00;100275.01;1714372;82;21498;-67
2022/08/09 02:46:46;;;;;;;8.28;4.53;;;;;;;17.24;100.00;100270.64;1733841;82;21069;-67
2022/08/09 02:49:15;;;;;;;10.15;4.17;;;;;;;17.23;100.00;100270.38;1728953;82;20963;-66
2022/08/09 02:51:42;;;;;;;6.97;4.45;;;;;;;17.24;100.00;100280.83;1730744;82;21106;-67
2022/08/09 02:54:12;;;;;;;7.15;4.50;;;;;;;17.26;100.00;100278.58;1733953;82;21003;-67
2022/08/09 02:56:40;;;;;;;6.12;4.70;;;;;;;17.26;100.00;100273.08;1733205;82;21060;-67
2022/08/09 02:59:06;;;;;;;6.08;4.80;;;;;;;17.29;100.00;100282.09;1734932;82;20951;-67
2022/08/09 03:01:33;;;;;;;;;;;;;;;17.30;100.00;100285.11;1742943;82;21067;-66
2022/08/09 03:03:59;;;;;;;6.08;4.97;;;;;;;17.33;100.00;100285.88;1742869;82;20130;-68
2022/08/09 03:06:26;;;;;;;7.00;4.70;;;;;;;17.33;100.00;100285.88;1721306;82;21593;-67
2022/08/09 03:08:52;;;;;;;6.53;5.40;;;;;;;17.35;100.00;100287.23;1687382;84;20994;-68
2022/08/09 03:11:20;;;;;;;;;;;;;;;17.37;100.00;100290.48;1722809;82;21052;-67
2022/08/09 03:13:47;;;;;;;17.90;14.03;;;;;;;17.39;100.00;100282.73;1722408;81;20105;-68
2022/08/09 03:16:14;;;;;;;16.60;14.45;;;;;;;17.38;100.00;100277.55;1707714;82;21047;-67
2022/08/09 03:18:41;;;;;;;15.40;11.48;;;;;;;17.43;100.00;100276.64;1712809;82;21488;-67
2022/08/09 03:21:07;;;;;;;10.20;7.25;;;;;;;17.40;100.00;100269.23;1720808;82;21103;-68
2022/08/09 03:23:34;;;;;;;9.23;6.83;;;;;;;17.41;100.00;100261.80;1720826;82;21028;-68
2022/08/09 03:26:00;;;;;;;;;;;;;;;17.43;100.00;100271.37;1720331;82;21099;-67
2022/08/09 03:28:27;;;;;;;7.50;6.22;;;;;;;17.43;100.00;100275.50;1722182;82;20128;-67
2022/08/09 03:30:54;;;;;;;9.98;6.00;;;;;;;17.38;100.00;100276.99;1716951;82;21099;-67
2022/08/09 03:33:20;;;;;;;6.42;5.50;;;;;;;17.32;100.00;100280.94;1714159;82;20995;-68
2022/08/09 03:35:50;;;;;;;7.87;5.58;;;;;;;17.31;100.00;100275.20;1718590;82;21094;-67
2022/08/09 03:38:17;;;;;;;8.78;6.42;;;;;;;17.33;100.00;100287.25;1689410;84;20971;-68
2022/08/09 03:40:43;;;;;;;9.05;6.10;;;;;;;17.36;100.00;100283.89;1719658;82;21589;-68
2022/08/09 03:43:09;;;;;;;;;;;;;;;17.39;100.00;100284.10;1714854;82;21025;-68
2022/08/09 03:45:36;;;;;;;7.10;5.58;;;;;;;17.43;100.00;100287.65;1718695;82;20403;-68
2022/08/09 03:48:04;;;;;;;6.35;5.50;;;;;;;17.40;100.00;100291.80;1726436;82;21027;-67
2022/08/09 03:50:30;;;;;;;7.92;5.22;;;;;;;17.45;100.00;100288.15;1711989;82;21134;-67
2022/08/09 03:52:59;;;;;;;5.95;4.28;;;;;;;17.53;100.00;100292.96;1712337;82;21011;-67
2022/08/09 03:55:25;;;;;;;6.00;4.25;;;;;;;17.63;100.00;100299.67;1721015;82;21052;-68
2022/08/09 03:57:52;;;;;;;5.53;4.45;;;;;;;17.74;100.00;100295.61;1713818;82;21070;-68
2022/08/09 04:00:19;;;;;;;7.00;4.03;;;;;;;17.84;100.00;100292.09;1713207;82;21578;-67
2022/08/09 04:02:46;;;;;;;8.00;4.42;;;;;;;18.01;100.00;100294.22;1724090;82;21015;-68
2022/08/09 04:05:13;;;;;;;7.03;4.72;;;;;;;18.18;100.00;100286.12;1723104;82;21629;-67
2022/08/09 04:07:40;;;;;;;6.65;4.12;;;;;;;18.34;100.00;100285.24;1711096;82;21072;-68
2022/08/09 04:10:07;;;;;;;8.00;4.22;;;;;;;18.45;100.00;100277.00;1726389;82;21016;-68
2022/08/09 04:12:45;;;;;;;5.72;4.00;;;;;;;18.58;100.00;100279.48;1715830;82;21054;-67
2022/08/09 04:15:13;;;;;;;5.00;3.83;;;;;;;18.70;100.00;100275.63;1712337;82;21147;-66
2022/08/09 04:17:40;;;;;;;7.12;3.67;;;;;;;18.87;100.00;100279.88;1726186;82;21087;-67
2022/08/09 04:20:09;;;;;;;5.25;3.27;;;;;;;19.06;100.00;100278.31;1720068;82;21091;-68
2022/08/09 04:22:35;;;;;;;5.40;3.08;;;;;;;19.22;100.00;100277.59;1719037;82;21047;-67
2022/08/09 04:25:02;;;;;;;4.60;3.10;;;;;;;19.31;100.00;100272.11;1721692;82;21037;-66
2022/08/09 04:27:29;;;;;;;5.47;3.40;;;;;;;19.45;100.00;100270.10;1713318;82;21039;-67
2022/08/09 04:29:56;;;;;;;5.97;2.90;;;;;;;19.63;100.00;100273.19;1712367;82;21039;-67
2022/08/09 04:32:23;;;;;;;4.22;2.80;;;;;;;19.70;100.00;100268.02;1721394;82;21042;-67
2022/08/09 04:34:49;;;;;;;6.65;3.30;;;;;;;19.65;100.00;100272.89;1714819;82;21002;-68
2022/08/09 04:37:16;;;;;;;3.65;2.60;;;;;;;19.64;100.00;100262.97;1730349;82;21020;-67
2022/08/09 04:39:42;;;;;;;5.90;2.85;;;;;;;19.57;100.00;100258.47;1727286;82;20980;-68
2022/08/09 04:42:08;;;;;;;3.25;2.70;;;;;;;19.51;100.00;100269.41;1720856;82;21107;-67
2022/08/09 04:44:36;;;;;;;5.10;2.80;;;;;;;19.56;100.00;100269.26;1712701;82;21019;-67
2022/08/09 04:47:02;;;;;;;5.37;2.80;;;;;;;19.71;100.00;100270.22;1713792;82;21139;-68
2022/08/09 04:49:35;;;;;;;4.35;2.62;;;;;;;19.99;100.00;100275.76;1718921;82;21031;-71
2022/08/09 04:52:00;;;;;;;3.25;2.22;;;;;;;20.25;100.00;100264.20;1731301;82;21126;-67
2022/08/09 04:54:26;;;;;;;4.15;1.60;;;;;;;20.46;100.00;100264.97;1717866;82;20988;-68
2022/08/09 04:56:52;;;;;;;5.47;2.02;;;;;;;20.66;100.00;100252.69;1716854;82;21490;-67
2022/08/09 04:59:19;;;;;;;5.00;1.95;;;;;;;20.65;100.00;100244.73;1717991;82;21031;-67
2022/08/09 05:01:45;;;;;;;3.35;1.80;;;;;;;20.74;100.00;100251.06;1715100;82;21063;-67
2022/08/09 05:04:12;;;;;;;3.60;1.30;;;;;;;20.68;100.00;100253.76;1718253;82;21019;-69
2022/08/09 05:06:38;;;;;;;3.05;1.17;;;;;;;20.66;100.00;100244.95;1716713;81;21098;-68
2022/08/09 05:09:04;;;;;;;2.58;1.00;;;;;;;20.64;100.00;100250.02;1722645;82;21011;-67
2022/08/09 05:11:32;;;;;;;2.37;1.40;;;;;;;20.54;100.00;100254.49;1730155;82;21098;-68
2022/08/09 05:13:59;;;;;;;1.95;1.10;;;;;;;20.47;100.00;100248.07;1718203;82;21016;-66
2022/08/09 05:16:25;;;;;;;2.55;1.07;;;;;;;20.41;100.00;100247.97;1721712;82;21106;-67
2022/08/09 05:18:52;;;;;;;2.20;1.00;;;;;;;20.34;100.00;100251.78;1722832;82;20976;-67
2022/08/09 05:21:18;;;;;;;2.67;1.05;;;;;;;20.31;100.00;100260.16;1736051;82;21075;-67
2022/08/09 05:23:45;;;;;;;3.33;1.02;;;;;;;20.28;100.00;100274.64;1713944;82;21435;-67
2022/08/09 05:26:11;;;;;;;3.12;1.00;;;;;;;20.33;100.00;100279.20;1709289;84;21106;-67
2022/08/09 05:28:38;;;;;;;2.65;1.35;;;;;;;20.41;100.00;100281.70;1712544;82;21470;-67
2022/08/09 05:31:04;;;;;;;2.72;1.20;;;;;;;20.53;100.00;100284.66;1709320;84;21066;-67
2022/08/09 05:33:31;;;;;;;3.33;1.12;;;;;;;20.66;100.00;100278.15;1706982;82;21102;-67
2022/08/09 05:35:57;;;;;;;2.52;1.30;;;;;;;20.82;100.00;100287.59;1715093;82;21059;-66
2022/08/09 05:38:24;;;;;;;2.50;1.10;;;;;;;20.89;100.00;100283.77;1721607;82;21003;-68
2022/08/09 05:40:50;;;;;;;2.42;1.10;;;;;;;20.88;100.00;100277.16;1729431;81;21717;-67
2022/08/09 05:43:18;;;;;;;4.70;1.22;;;;;;;20.94;100.00;100270.34;1709162;82;20987;-66
2022/08/09 05:45:44;;;;;;;2.55;1.22;;;;;;;20.97;100.00;100271.88;1738094;82;21608;-65
2022/08/09 05:48:10;;;;;;;4.28;1.30;;;;;;;21.18;100.00;100281.16;1727539;82;21107;-67
2022/08/09 05:50:40;;;;;;;3.58;1.47;;;;;;;21.43;100.00;100281.42;1715386;82;21095;-67
2022/08/09 05:53:05;;;;;;;1.95;1.15;;;;;;;21.77;100.00;100288.20;1713949;82;21023;-67
2022/08/09 05:55:32;;;;;;;3.52;1.37;;;;;;;22.06;100.00;100268.03;1710763;82;21056;-67
2022/08/09 05:57:58;;;;;;;3.83;1.30;;;;;;;22.28;100.00;100266.35;1713621;82;21098;-67
2022/08/09 06:00:26;;;;;;;3.80;1.37;;;;;;;22.33;100.00;100256.42;1710224;81;21130;-67
2022/08/09 06:02:59;;;;;;;3.20;1.42;;;;;;;22.38;100.00;100255.42;1714387;82;21019;-67
2022/08/09 06:05:27;;;;;;;5.35;1.05;;;;;;;22.42;100.00;100266.90;1713864;82;21841;-67
2022/08/09 06:07:53;;;;;;;2.35;1.05;;;;;;;22.40;100.00;100263.63;1699011;83;21078;-68
2022/08/09 06:10:20;;;;;;;3.55;1.50;;;;;;;22.35;100.00;100274.95;1697093;84;21066;-66
2022/08/09 06:12:47;;;;;;;1.92;1.10;;;;;;;22.12;100.00;100263.91;1720182;82;21494;-67
2022/08/09 06:15:13;;;;;;;3.98;1.27;;;;;;;21.89;100.00;100270.30;1709334;82;21071;-67
2022/08/09 06:17:40;;;;;;;2.85;1.10;;;;;;;21.83;100.00;100279.94;1715036;82;21388;-67
2022/08/09 06:20:07;;;;;;;2.10;1.05;;;;;;;21.82;100.00;100280.50;1709118;82;21087;-67
2022/08/09 06:22:34;;;;;;;3.75;1.30;;;;;;;21.82;100.00;100288.81;1718375;82;21106;-67
2022/08/09 06:25:01;;;;;;;3.25;1.50;;;;;;;21.70;100.00;100276.83;1722252;82;21087;-67
2022/08/09 06:27:28;;;;;;;2.05;1.40;;;;;;;21.49;100.00;100287.83;1726851;81;21035;-67
2022/08/09 06:29:54;;;;;;;4.03;1.30;;;;;;;21.41;100.00;100287.84;1718199;82;21007;-67
2022/08/09 06:32:21;;;;;;;2.62;1.42;;;;;;;21.42;100.00;100299.17;1716513;82;21047;-68
2022/08/09 06:34:47;;;;;;;5.03;1.42;;;;;;;21.48;100.00;100288.96;1713474;82;21059;-66
2022/08/09 06:37:14;;;;;;;6.17;1.40;;;;;;;21.61;100.00;100290.70;1733609;82;21530;-66
2022/08/09 06:39:41;;;;;;;3.40;1.45;;;;;;;21.75;100.00;100287.73;1721451;82;21040;-67
2022/08/09 06:42:07;;;;;;;2.00;1.70;;;;;;;21.86;100.00;100288.17;1714401;82;21071;-68
2022/08/09 06:44:34;;;;;;;2.85;1.30;;;;;;;21.96;100.00;100269.23;1713189;82;21489;-67
2022/08/09 06:47:01;;;;;;;1.98;1.50;;;;;;;22.06;100.00;100276.35;1719230;82;21115;-68
2022/08/09 06:49:28;;;;;;;3.27;2.15;;;;;;;22.08;100.00;100270.70;1731783;82;21442;-66
2022/08/09 06:51:54;;;;;;;2.52;1.37;;;;;;;22.06;100.00;100275.78;1717511;82;21047;-66
2022/08/09 06:54:21;;;;;;;1.85;1.07;;;;;;;22.19;100.00;100284.42;1673211;85;21514;-68
2022/08/09 06:56:47;;;;;;;4.20;1.30;;;;;;;22.39;100.00;100282.80;1711069;82;21024;-67
2022/08/09 06:59:13;;;;;;;4.03;1.45;;;;;;;22.52;100.00;100278.16;1731281;82;21546;-67
2022/08/09 07:01:40;;;;;;;1.75;1.00;;;;;;;22.53;100.00;100275.63;1736745;82;21044;-66
2022/08/09 07:04:06;;;;;;;1.55;0.80;;;;;;;22.46;100.00;100276.75;1734232;82;21042;-67
2022/08/09 07:06:34;;;;;;;2.60;0.90;;;;;;;22.46;100.00;100277.53;1720075;81;21126;-67
2022/08/09 07:09:01;;;;;;;2.25;1.00;;;;;;;22.56;100.00;100280.50;1735628;82;21505;-67
2022/08/09 07:11:27;;;;;;;3.25;0.72;;;;;;;22.59;100.00;100273.70;1710304;82;21035;-69
2022/08/09 07:13:54;;;;;;;1.60;0.70;;;;;;;22.61;100.00;100262.24;1714282;81;21031;-65
2022/08/09 07:16:20;;;;;;;1.98;0.50;;;;;;;22.49;100.00;100269.95;1729069;81;21036;-65
2022/08/09 07:18:46;;;;;;;2.00;0.80;;;;;;;22.38;100.00;100263.74;1714213;81;21031;-65
2022/08/09 07:21:13;;;;;;;3.75;0.60;;;;;;;22.31;100.00;100255.39;1709844;82;21039;-64
2022/08/09 07:23:41;;;;;;;1.00;0.60;;;;;;;22.22;100.00;100268.48;1709091;81;21141;-66
2022/08/09 07:26:08;;;;;;;1.05;0.75;;;;;;;22.07;100.00;100264.13;1716386;81;21052;-65
2022/08/09 07:28:35;;;;;;;2.45;0.70;;;;;;;21.97;100.00;100265.87;1717988;81;21027;-65
2022/08/09 07:31:05;;;;;;;2.17;0.85;;;;;;;21.95;100.00;100259.86;1710161;82;21106;-66
2022/08/09 07:33:32;;;;;;;1.90;0.60;;;;;;;21.94;100.00;100264.59;1719363;81;21095;-66
2022/08/09 07:35:59;;;;;;;2.72;0.60;;;;;;;21.92;100.00;100256.38;1709137;82;21055;-65
2022/08/09 07:38:25;;;;;;;2.37;0.62;;;;;;;21.92;100.00;100256.38;1710254;81;21560;-66
2022/08/09 07:40:53;;;;;;;1.55;0.90;;;;;;;21.90;100.00;100259.47;1695955;83;21048;-65
2022/08/09 07:43:19;;;;;;;1.30;0.50;;;;;;;21.86;100.00;100257.09;1742441;81;21070;-66
2022/08/09 07:45:46;;;;;;;2.95;0.60;;;;;;;21.91;100.00;100254.74;1721936;81;21111;-68
2022/08/09 07:48:12;;;;;;;3.00;0.60;;;;;;;21.86;100.00;100257.69;1712413;81;20995;-67
2022/08/09 07:50:39;;;;;;;2.98;0.80;;;;;;;21.78;100.00;100253.81;1728309;82;21013;-66
2022/08/09 07:53:06;;;;;;;1.32;0.60;;;;;;;21.70;100.00;100252.70;1716986;82;21062;-67
2022/08/09 07:55:33;;;;;;;2.47;1.12;;;;;;;21.68;100.00;100251.42;1704900;82;21055;-67
2022/08/09 07:58:01;;;;;;;1.15;0.57;;;;;;;21.69;100.00;100258.56;1716963;81;21570;-66
2022/08/09 08:00:28;;;;;;;1.90;0.60;;;;;;;21.73;100.00;100263.69;1729092;81;21654;-67
2022/08/09 08:02:56;;;;;;;1.25;0.60;;;;;;;21.78;100.00;100271.25;1717636;82;21545;-65
2022/08/09 08:05:23;;;;;;;1.37;0.57;;;;;;;21.79;100.00;100270.09;1708274;82;21059;-66
2022/08/09 08:07:50;;;;;;;0.93;0.50;;;;;;;21.72;100.00;100276.72;1731420;82;21051;-67
2022/08/09 08:10:17;;;;;;;1.57;0.50;;;;;;;21.64;100.00;100287.86;1729320;82;21562;-67
2022/08/09 08:12:44;;;;;;;0.85;0.40;;;;;;;21.54;100.00;100286.84;1732022;82;21541;-66
2022/08/09 08:15:16;;;;;;;0.90;0.40;;;;;;;21.50;100.00;100281.72;1738554;82;21382;-66
2022/08/09 08:17:46;;;;;;;1.70;0.50;;;;;;;21.48;100.00;100284.80;1735132;82;21070;-66
2022/08/09 08:20:13;;;;;;;1.77;0.40;;;;;;;21.48;100.00;100285.38;1733579;82;21079;-66
2022/08/09 08:22:40;;;;;;;1.70;0.50;;;;;;;21.45;100.00;100284.66;1736157;82;21003;-66
2022/08/09 08:25:07;;;;;;;1.75;0.50;;;;;;;21.43;100.00;100283.62;1733880;82;21605;-65
2022/08/09 08:27:35;;;;;;;1.85;0.70;;;;;;;21.38;100.00;100282.40;1728264;82;21019;-66
2022/08/09 08:30:02;;;;;;;2.12;0.60;;;;;;;21.39;100.00;100282.65;1726597;82;20975;-66
2022/08/09 08:32:29;;;;;;;1.25;0.60;;;;;;;21.45;100.00;100285.47;1731113;82;21026;-66
2022/08/09 08:34:57;;;;;;;1.27;0.50;;;;;;;21.53;100.00;100284.64;1740740;82;21549;-66
2022/08/09 08:37:23;;;;;;;4.15;0.57;;;;;;;21.62;100.00;100281.82;1747614;82;21074;-66
2022/08/09 08:39:50;;;;;;;2.42;0.57;;;;;;;21.73;100.00;100281.70;1730838;82;21820;-64
2022/08/09 08:42:16;;;;;;;1.70;0.50;;;;;;;21.84;100.00;100270.48;1731432;82;21018;-66
2022/08/09 08:44:43;;;;;;;2.52;0.70;;;;;;;21.93;100.00;100278.20;1733486;82;21075;-65
2022/08/09 08:47:13;;;;;;;2.22;0.50;;;;;;;21.96;100.00;100273.97;1728860;82;21668;-66
2022/08/09 08:49:40;;;;;;;3.22;0.70;;;;;;;21.95;100.00;100275.92;1711672;82;21491;-66
2022/08/09 08:52:09;;;;;;;2.40;0.62;;;;;;;21.95;100.00;100262.06;1729470;82;21102;-68
2022/08/09 08:54:37;;;;;;;2.42;0.60;;;;;;;21.99;100.00;100263.02;1731108;82;20998;-66
2022/08/09 08:57:03;;;;;;;3.08;0.70;;;;;;;22.01;100.00;100260.72;1687321;82;21537;-66
2022/08/09 08:59:30;;;;;;;2.77;0.60;;;;;;;22.07;100.00;100259.97;1733814;82;21054;-68
2022/08/09 09:01:56;;;;;;;3.87;0.60;;;;;;;22.08;100.00;100259.61;1736892;82;21036;-67
2022/08/09 09:04:31;;;;;;;4.97;0.70;;;;;;;22.16;100.00;100255.16;1733018;82;21628;-66
2022/08/09 09:07:01;;;;;;;1.27;0.40;;;;;;;22.31;100.00;100258.17;1731119;82;21564;-68
2022/08/09 09:09:28;;;;;;;1.05;0.40;;;;;;;22.41;100.00;100251.97;1670420;85;21007;-67
2022/08/09 09:11:55;;;;;;;1.32;0.40;;;;;;;22.41;100.00;100245.85;1715033;82;21040;-68
2022/08/09 09:14:22;;;;;;;0.93;0.40;;;;;;;22.44;100.00;100239.63;1722987;82;20948;-68
2022/08/09 09:16:49;;;;;;;1.10;0.30;;;;;;;22.47;100.00;100240.33;1714530;82;21019;-67
2022/08/09 09:19:15;;;;;;;1.35;0.47;;;;;;;22.48;100.00;100232.82;1728512;81;21581;-69
2022/08/09 09:22:05;;;;;;;2.08;0.50;;;;;;;22.52;100.00;100234.59;1720172;82;21011;-65
2022/08/09 09:24:38;;;;;;;1.50;0.30;;;;;;;22.56;100.00;100243.05;1717667;82;21011;-69
2022/08/09 09:27:06;;;;;;;1.80;0.40;;;;;;;22.50;100.00;100234.67;1725302;82;21039;-66
2022/08/09 09:29:39;;;;;;;4.42;0.50;;;;;;;22.43;100.00;100231.62;1720701;82;21463;-66
2022/08/09 09:32:06;;;;;;;2.15;0.40;;;;;;;22.38;100.00;100238.78;1719406;81;21074;-67
2022/08/09 09:34:32;;;;;;;1.35;0.40;;;;;;;22.35;100.00;100236.12;1723531;82;20984;-65
2022/08/09 09:37:00;;;;;;;2.40;0.47;;;;;;;22.34;100.00;100231.71;1725337;82;21044;-67
2022/08/09 09:39:28;;;;;;;0.98;0.30;;;;;;;22.28;100.00;100235.84;1717007;82;20996;-67
2022/08/09 09:41:55;;;;;;;1.07;0.40;;;;;;;22.22;100.00;100241.33;1715007;82;21565;-67
2022/08/09 09:44:32;;;;;;;3.80;0.50;;;;;;;22.19;100.00;100234.51;1723534;82;21514;-65
2022/08/09 09:47:10;;;;;;;4.15;0.40;;;;;;;22.15;100.00;100241.87;1710122;82;21621;-66
2022/08/09 09:49:37;;;;;;;1.40;0.30;;;;;;;22.06;100.00;100236.16;1727093;82;20984;-66
2022/08/09 09:52:07;;;;;;;1.32;0.40;;;;;;;21.97;100.00;100240.92;1732269;82;21590;-66
2022/08/09 09:54:37;;;;;;;5.47;0.85;;;;;;;21.91;100.00;100241.70;1712457;82;21411;-67
2022/08/09 09:57:23;;;;;;;1.85;0.40;;;;;;;21.88;100.00;100239.57;1716319;82;21027;-66
2022/08/09 09:59:51;;;;;;;2.95;0.40;;;;;;;21.84;100.00;100240.00;1721847;82;21804;-66
2022/08/09 10:02:19;;;;;;;2.02;0.30;;;;;;;21.83;100.00;100229.48;1729352;82;21032;-67
2022/08/09 10:04:47;;;;;;;1.45;0.55;;;;;;;21.91;100.00;100229.80;1716480;82;20983;-65
2022/08/09 10:07:24;;;;;;;2.60;0.62;;;;;;;21.97;100.00;100239.53;1715614;81;21075;-67
2022/08/09 10:09:56;;;;;;;5.35;0.40;;;;;;;22.05;100.00;100233.13;1736661;82;21506;-67
2022/08/09 10:12:31;;;;;;;2.20;0.53;;;;;;;22.19;100.00;100232.30;1736825;82;21585;-66
2022/08/09 10:15:16;;;;;;;1.33;0.40;;;;;;;22.23;100.00;100241.00;1734855;82;21046;-67
2022/08/09 10:17:46;;;;;;;2.37;0.65;;;;;;;22.32;100.00;100234.81;1731146;82;21296;-66
2022/08/09 10:20:25;;;;;;;2.15;0.50;;;;;;;22.37;100.00;100238.53;1738825;82;21070;-66
2022/08/09 10:22:54;;;;;;;1.92;0.42;;;;;;;22.47;100.00;100240.89;1727184;82;21054;-65
2022/08/09 10:25:22;;;;;;;1.12;0.30;;;;;;;22.52;100.00;100228.22;1723430;82;21073;-66
2022/08/09 10:27:49;;;;;;;2.60;0.53;;;;;;;22.52;100.00;100228.22;1738440;82;21031;-64
2022/08/09 10:30:16;;;;;;;2.40;0.40;;;;;;;22.48;100.00;100235.02;1725711;82;21107;-65
2022/08/09 10:32:43;;;;;;;2.55;0.45;;;;;;;22.48;100.00;100235.02;1732528;82;21518;-65
2022/08/09 10:35:10;;;;;;;2.67;0.50;;;;;;;22.45;100.00;100234.89;1734600;82;21011;-64
2022/08/09 10:37:37;;;;;;;2.27;0.40;;;;;;;22.40;100.00;100233.69;1737267;82;20976;-62
2022/08/09 10:40:07;;;;;;;7.95;0.65;;;;;;;22.38;100.00;100231.28;1733386;82;21546;-64
2022/08/09 10:42:34;;;;;;;1.45;0.50;;;;;;;22.37;100.00;100226.87;1727763;82;21019;-64
2022/08/09 10:45:05;;;;;;;1.30;0.30;;;;;;;22.37;100.00;100224.66;1744907;82;21007;-65
2022/08/09 10:48:16;;;;;;;2.00;0.40;;;;;;;22.34;100.00;100226.16;1738372;82;20956;-63
2022/08/09 10:51:08;;;;;;;4.30;0.62;;;;;;;22.34;100.00;100217.84;1742218;82;21055;-65
2022/08/09 10:54:04;;;;;;;3.80;0.50;;;;;;;22.29;100.00;100220.23;1750871;82;21058;-66
2022/08/09 10:56:35;;;;;;;1.17;0.40;;;;;;;22.27;100.00;100213.41;1730465;82;21469;-65
2022/08/09 10:59:28;;;;;;;2.30;0.50;;;;;;;22.30;100.00;100211.34;1746802;82;21031;-64
2022/08/09 11:01:54;;;;;;;2.37;0.50;;;;;;;22.33;100.00;100209.28;1722106;82;21133;-65
2022/08/09 11:04:24;;;;;;;1.10;0.50;;;;;;;22.38;100.00;100210.47;1722636;82;20991;-63
2022/08/09 11:07:03;;;;;;;1.98;0.37;;;;;;;22.43;100.00;100217.75;1722612;83;21078;-66
2022/08/09 11:09:47;;;;;;;2.17;0.60;;;;;;;22.50;100.00;100220.80;1723173;82;21053;-65
2022/08/09 11:12:17;;;;;;;2.65;0.60;;;;;;;22.51;100.00;100220.47;1711668;82;21526;-64
2022/08/09 11:15:01;;;;;;;1.30;0.50;;;;;;;22.50;100.00;100221.61;1710487;82;21041;-64
2022/08/09 11:17:39;;;;;;;2.75;0.50;;;;;;;22.52;100.00;100215.17;1706823;82;21019;-64
2022/08/09 11:20:08;;;;;;;1.80;0.62;;;;;;;22.51;100.00;100216.31;1719750;82;21799;-65
2022/08/09 11:22:47;;;;;;;3.72;0.70;;;;;;;22.54;100.00;100215.62;1710210;82;21423;-65
2022/08/09 11:25:30;;;;;;;3.00;0.65;;;;;;;22.60;100.00;100219.81;1707645;82;21074;-66
2022/08/09 11:27:57;;;;;;;1.67;0.50;;;;;;;22.66;100.00;100214.30;1705245;82;21036;-62